sensor_id;sensor_type;location;lat;lon;timestamp;P1;durP1;ratioP1;P2;durP2;ratioP2
10537;SDS011;5317;49.048;8.468;2023-05-07T00:02:01;4.83;;;3.03;;
10537;SDS011;5317;49.048;8.468;2023-05-07T00:04:28;3.13;;;2.70;;
10537;SDS011;5317;49.048;8.468;2023-05-07T00:07:00;2.97;;;2.67;;
10537;SDS011;5317;49.048;8.468;2023-05-07T00:09:27;4.00;;;2.60;;
10537;SDS011;5317;49.048;8.468;2023-05-07T00:11:54;6.13;;;2.97;;
10537;SDS011;5317;49.048;8.468;2023-05-07T00:14:21;4.53;;;2.60;;
10537;SDS011;5317;49.048;8.468;2023-05-07T00:16:49;3.33;;;2.87;;
10537;SDS011;5317;49.048;8.468;2023-05-07T00:19:16;4.23;;;2.97;;
10537;SDS011;5317;49.048;8.468;2023-05-07T00:21:43;3.73;;;3.00;;
10537;SDS011;5317;49.048;8.468;2023-05-07T00:24:10;3.70;;;2.97;;
10537;SDS011;5317;49.048;8.468;2023-05-07T00:26:37;2.90;;;2.60;;
10537;SDS011;5317;49.048;8.468;2023-05-07T00:29:04;3.57;;;2.67;;
10537;SDS011;5317;49.048;8.468;2023-05-07T00:31:30;5.47;;;3.23;;
10537;SDS011;5317;49.048;8.468;2023-05-07T00:33:59;3.40;;;3.07;;
10537;SDS011;5317;49.048;8.468;2023-05-07T00:36:25;5.33;;;3.10;;
10537;SDS011;5317;49.048;8.468;2023-05-07T00:38:53;3.57;;;3.00;;
10537;SDS011;5317;49.048;8.468;2023-05-07T00:41:20;3.40;;;3.10;;
10537;SDS011;5317;49.048;8.468;2023-05-07T00:43:47;5.13;;;2.93;;
10537;SDS011;5317;49.048;8.468;2023-05-07T00:46:16;3.07;;;2.70;;
10537;SDS011;5317;49.048;8.468;2023-05-07T00:48:44;3.00;;;2.60;;
10537;SDS011;5317;49.048;8.468;2023-05-07T00:51:12;4.60;;;2.90;;
10537;SDS011;5317;49.048;8.468;2023-05-07T00:53:39;4.00;;;3.00;;
10537;SDS011;5317;49.048;8.468;2023-05-07T00:56:06;4.47;;;2.73;;
10537;SDS011;5317;49.048;8.468;2023-05-07T00:58:33;3.37;;;2.80;;
10537;SDS011;5317;49.048;8.468;2023-05-07T01:01:01;4.03;;;2.63;;
10537;SDS011;5317;49.048;8.468;2023-05-07T01:03:28;4.03;;;2.70;;
10537;SDS011;5317;49.048;8.468;2023-05-07T01:05:55;3.63;;;2.80;;
10537;SDS011;5317;49.048;8.468;2023-05-07T01:08:26;3.13;;;2.60;;
10537;SDS011;5317;49.048;8.468;2023-05-07T01:11:03;5.63;;;2.73;;
10537;SDS011;5317;49.048;8.468;2023-05-07T01:13:30;5.17;;;3.13;;
10537;SDS011;5317;49.048;8.468;2023-05-07T01:15:57;2.93;;;2.60;;
10537;SDS011;5317;49.048;8.468;2023-05-07T01:18:25;4.40;;;2.87;;
10537;SDS011;5317;49.048;8.468;2023-05-07T01:21:09;2.87;;;2.67;;
10537;SDS011;5317;49.048;8.468;2023-05-07T01:23:38;5.23;;;3.23;;
10537;SDS011;5317;49.048;8.468;2023-05-07T01:26:07;3.90;;;2.93;;
10537;SDS011;5317;49.048;8.468;2023-05-07T01:28:34;3.63;;;2.63;;
10537;SDS011;5317;49.048;8.468;2023-05-07T01:31:01;4.47;;;2.70;;
10537;SDS011;5317;49.048;8.468;2023-05-07T01:33:29;3.67;;;3.17;;
10537;SDS011;5317;49.048;8.468;2023-05-07T01:35:59;3.40;;;3.10;;
10537;SDS011;5317;49.048;8.468;2023-05-07T01:38:28;3.17;;;2.83;;
10537;SDS011;5317;49.048;8.468;2023-05-07T01:41:00;4.23;;;3.10;;
10537;SDS011;5317;49.048;8.468;2023-05-07T01:43:27;3.93;;;3.07;;
10537;SDS011;5317;49.048;8.468;2023-05-07T01:45:55;3.63;;;2.90;;
10537;SDS011;5317;49.048;8.468;2023-05-07T01:48:24;3.50;;;3.20;;
10537;SDS011;5317;49.048;8.468;2023-05-07T01:50:52;3.80;;;3.17;;
10537;SDS011;5317;49.048;8.468;2023-05-07T01:53:19;3.03;;;2.77;;
10537;SDS011;5317;49.048;8.468;2023-05-07T01:55:46;5.00;;;2.93;;
10537;SDS011;5317;49.048;8.468;2023-05-07T01:58:14;3.30;;;2.80;;
10537;SDS011;5317;49.048;8.468;2023-05-07T02:00:41;4.47;;;3.00;;
10537;SDS011;5317;49.048;8.468;2023-05-07T02:03:08;3.43;;;2.67;;
10537;SDS011;5317;49.048;8.468;2023-05-07T02:05:35;2.90;;;2.70;;
10537;SDS011;5317;49.048;8.468;2023-05-07T02:08:02;2.97;;;2.67;;
10537;SDS011;5317;49.048;8.468;2023-05-07T02:10:29;3.40;;;2.70;;
10537;SDS011;5317;49.048;8.468;2023-05-07T02:12:56;3.73;;;2.90;;
10537;SDS011;5317;49.048;8.468;2023-05-07T02:15:26;2.83;;;2.53;;
10537;SDS011;5317;49.048;8.468;2023-05-07T02:17:59;3.13;;;2.83;;
10537;SDS011;5317;49.048;8.468;2023-05-07T02:20:27;3.53;;;3.00;;
10537;SDS011;5317;49.048;8.468;2023-05-07T02:22:54;2.87;;;2.67;;
10537;SDS011;5317;49.048;8.468;2023-05-07T02:25:21;3.00;;;2.70;;
10537;SDS011;5317;49.048;8.468;2023-05-07T02:27:47;4.47;;;2.73;;
10537;SDS011;5317;49.048;8.468;2023-05-07T02:30:14;3.13;;;2.83;;
10537;SDS011;5317;49.048;8.468;2023-05-07T02:32:43;3.97;;;3.10;;
10537;SDS011;5317;49.048;8.468;2023-05-07T02:35:10;4.43;;;2.90;;
10537;SDS011;5317;49.048;8.468;2023-05-07T02:37:37;3.50;;;2.73;;
10537;SDS011;5317;49.048;8.468;2023-05-07T02:40:04;5.00;;;2.80;;
10537;SDS011;5317;49.048;8.468;2023-05-07T02:42:32;3.60;;;3.10;;
10537;SDS011;5317;49.048;8.468;2023-05-07T02:44:59;3.30;;;3.00;;
10537;SDS011;5317;49.048;8.468;2023-05-07T02:47:26;3.33;;;3.03;;
10537;SDS011;5317;49.048;8.468;2023-05-07T02:49:55;4.10;;;3.10;;
10537;SDS011;5317;49.048;8.468;2023-05-07T02:52:22;3.50;;;3.20;;
10537;SDS011;5317;49.048;8.468;2023-05-07T02:54:49;3.70;;;3.33;;
10537;SDS011;5317;49.048;8.468;2023-05-07T02:57:15;3.87;;;2.83;;
10537;SDS011;5317;49.048;8.468;2023-05-07T02:59:42;3.30;;;2.93;;
10537;SDS011;5317;49.048;8.468;2023-05-07T03:02:09;4.43;;;3.10;;
10537;SDS011;5317;49.048;8.468;2023-05-07T03:04:36;3.27;;;3.07;;
10537;SDS011;5317;49.048;8.468;2023-05-07T03:07:05;3.60;;;2.80;;
10537;SDS011;5317;49.048;8.468;2023-05-07T03:09:32;4.17;;;3.03;;
10537;SDS011;5317;49.048;8.468;2023-05-07T03:11:59;4.27;;;3.03;;
10537;SDS011;5317;49.048;8.468;2023-05-07T03:14:26;3.43;;;2.87;;
10537;SDS011;5317;49.048;8.468;2023-05-07T03:16:53;3.23;;;2.97;;
10537;SDS011;5317;49.048;8.468;2023-05-07T03:19:20;3.53;;;2.90;;
10537;SDS011;5317;49.048;8.468;2023-05-07T03:21:47;3.00;;;2.70;;
10537;SDS011;5317;49.048;8.468;2023-05-07T03:24:15;3.40;;;2.80;;
10537;SDS011;5317;49.048;8.468;2023-05-07T03:26:42;5.00;;;3.30;;
10537;SDS011;5317;49.048;8.468;2023-05-07T03:29:09;2.90;;;2.60;;
10537;SDS011;5317;49.048;8.468;2023-05-07T03:31:36;3.67;;;2.90;;
10537;SDS011;5317;49.048;8.468;2023-05-07T03:34:03;4.07;;;3.00;;
10537;SDS011;5317;49.048;8.468;2023-05-07T03:36:30;3.13;;;2.83;;
10537;SDS011;5317;49.048;8.468;2023-05-07T03:38:57;3.40;;;3.00;;
10537;SDS011;5317;49.048;8.468;2023-05-07T03:41:25;3.90;;;3.17;;
10537;SDS011;5317;49.048;8.468;2023-05-07T03:43:52;4.40;;;3.10;;
10537;SDS011;5317;49.048;8.468;2023-05-07T03:46:19;3.43;;;2.90;;
10537;SDS011;5317;49.048;8.468;2023-05-07T03:48:46;3.67;;;3.27;;
10537;SDS011;5317;49.048;8.468;2023-05-07T03:51:12;3.37;;;3.00;;
10537;SDS011;5317;49.048;8.468;2023-05-07T03:53:39;3.53;;;3.23;;
10537;SDS011;5317;49.048;8.468;2023-05-07T03:56:06;3.43;;;3.00;;
10537;SDS011;5317;49.048;8.468;2023-05-07T03:58:34;4.00;;;3.43;;
10537;SDS011;5317;49.048;8.468;2023-05-07T04:01:01;3.60;;;3.30;;
10537;SDS011;5317;49.048;8.468;2023-05-07T04:03:29;3.07;;;2.67;;
10537;SDS011;5317;49.048;8.468;2023-05-07T04:05:55;6.30;;;2.97;;
10537;SDS011;5317;49.048;8.468;2023-05-07T04:08:22;4.03;;;2.90;;
10537;SDS011;5317;49.048;8.468;2023-05-07T04:10:54;3.60;;;2.97;;
10537;SDS011;5317;49.048;8.468;2023-05-07T04:13:21;3.53;;;2.90;;
10537;SDS011;5317;49.048;8.468;2023-05-07T04:15:49;3.43;;;3.13;;
10537;SDS011;5317;49.048;8.468;2023-05-07T04:18:17;3.27;;;2.97;;
10537;SDS011;5317;49.048;8.468;2023-05-07T04:20:44;3.80;;;3.00;;
10537;SDS011;5317;49.048;8.468;2023-05-07T04:23:11;3.83;;;2.83;;
10537;SDS011;5317;49.048;8.468;2023-05-07T04:25:38;5.87;;;3.50;;
10537;SDS011;5317;49.048;8.468;2023-05-07T04:28:05;4.53;;;3.27;;
10537;SDS011;5317;49.048;8.468;2023-05-07T04:30:32;3.53;;;3.23;;
10537;SDS011;5317;49.048;8.468;2023-05-07T04:33:00;3.23;;;2.93;;
10537;SDS011;5317;49.048;8.468;2023-05-07T04:35:27;3.60;;;3.07;;
10537;SDS011;5317;49.048;8.468;2023-05-07T04:37:54;3.03;;;2.80;;
10537;SDS011;5317;49.048;8.468;2023-05-07T04:40:21;4.37;;;3.30;;
10537;SDS011;5317;49.048;8.468;2023-05-07T04:42:48;3.70;;;3.40;;
10537;SDS011;5317;49.048;8.468;2023-05-07T04:45:15;4.17;;;3.43;;
10537;SDS011;5317;49.048;8.468;2023-05-07T04:47:42;3.20;;;2.90;;
10537;SDS011;5317;49.048;8.468;2023-05-07T04:50:10;3.57;;;3.27;;
10537;SDS011;5317;49.048;8.468;2023-05-07T04:52:37;3.50;;;3.20;;
10537;SDS011;5317;49.048;8.468;2023-05-07T04:55:04;3.43;;;3.10;;
10537;SDS011;5317;49.048;8.468;2023-05-07T04:57:31;3.10;;;2.90;;
10537;SDS011;5317;49.048;8.468;2023-05-07T04:59:58;3.40;;;3.10;;
10537;SDS011;5317;49.048;8.468;2023-05-07T05:02:25;3.40;;;2.83;;
10537;SDS011;5317;49.048;8.468;2023-05-07T05:04:52;5.60;;;3.07;;
10537;SDS011;5317;49.048;8.468;2023-05-07T05:07:20;3.40;;;3.10;;
10537;SDS011;5317;49.048;8.468;2023-05-07T05:09:47;4.33;;;3.30;;
10537;SDS011;5317;49.048;8.468;2023-05-07T05:12:14;4.07;;;2.97;;
10537;SDS011;5317;49.048;8.468;2023-05-07T05:14:40;3.87;;;3.57;;
10537;SDS011;5317;49.048;8.468;2023-05-07T05:17:08;3.60;;;3.10;;
10537;SDS011;5317;49.048;8.468;2023-05-07T05:19:34;3.23;;;3.00;;
10537;SDS011;5317;49.048;8.468;2023-05-07T05:22:01;8.50;;;3.83;;
10537;SDS011;5317;49.048;8.468;2023-05-07T05:24:30;3.53;;;2.87;;
10537;SDS011;5317;49.048;8.468;2023-05-07T05:26:57;3.83;;;2.70;;
10537;SDS011;5317;49.048;8.468;2023-05-07T05:29:25;4.67;;;3.10;;
10537;SDS011;5317;49.048;8.468;2023-05-07T05:31:51;4.17;;;3.40;;
10537;SDS011;5317;49.048;8.468;2023-05-07T05:34:18;3.50;;;3.20;;
10537;SDS011;5317;49.048;8.468;2023-05-07T05:36:46;3.67;;;3.20;;
10537;SDS011;5317;49.048;8.468;2023-05-07T05:39:13;5.83;;;3.37;;
10537;SDS011;5317;49.048;8.468;2023-05-07T05:41:42;3.57;;;3.27;;
10537;SDS011;5317;49.048;8.468;2023-05-07T05:44:08;4.97;;;3.23;;
10537;SDS011;5317;49.048;8.468;2023-05-07T05:46:35;3.57;;;3.10;;
10537;SDS011;5317;49.048;8.468;2023-05-07T05:49:02;4.33;;;3.10;;
10537;SDS011;5317;49.048;8.468;2023-05-07T05:51:29;3.73;;;3.00;;
10537;SDS011;5317;49.048;8.468;2023-05-07T05:53:56;3.67;;;2.73;;
10537;SDS011;5317;49.048;8.468;2023-05-07T05:56:23;3.40;;;3.10;;
10537;SDS011;5317;49.048;8.468;2023-05-07T05:58:52;5.03;;;2.90;;
10537;SDS011;5317;49.048;8.468;2023-05-07T06:01:19;2.73;;;2.53;;
10537;SDS011;5317;49.048;8.468;2023-05-07T06:03:46;3.23;;;2.93;;
10537;SDS011;5317;49.048;8.468;2023-05-07T06:06:12;2.90;;;2.70;;
10537;SDS011;5317;49.048;8.468;2023-05-07T06:08:40;3.13;;;2.83;;
10537;SDS011;5317;49.048;8.468;2023-05-07T06:11:07;2.87;;;2.40;;
10537;SDS011;5317;49.048;8.468;2023-05-07T06:13:34;3.40;;;3.00;;
10537;SDS011;5317;49.048;8.468;2023-05-07T06:16:02;2.70;;;2.50;;
10537;SDS011;5317;49.048;8.468;2023-05-07T06:18:30;5.20;;;2.77;;
10537;SDS011;5317;49.048;8.468;2023-05-07T06:21:06;3.50;;;2.60;;
10537;SDS011;5317;49.048;8.468;2023-05-07T06:23:32;3.83;;;2.43;;
10537;SDS011;5317;49.048;8.468;2023-05-07T06:26:00;3.63;;;2.47;;
10537;SDS011;5317;49.048;8.468;2023-05-07T06:28:27;3.17;;;2.60;;
10537;SDS011;5317;49.048;8.468;2023-05-07T06:30:55;2.50;;;2.17;;
10537;SDS011;5317;49.048;8.468;2023-05-07T06:33:37;2.10;;;1.90;;
10537;SDS011;5317;49.048;8.468;2023-05-07T06:36:05;2.40;;;2.20;;
10537;SDS011;5317;49.048;8.468;2023-05-07T06:38:32;3.77;;;2.10;;
10537;SDS011;5317;49.048;8.468;2023-05-07T06:40:59;2.70;;;2.20;;
10537;SDS011;5317;49.048;8.468;2023-05-07T06:43:26;3.00;;;2.70;;
10537;SDS011;5317;49.048;8.468;2023-05-07T06:46:08;2.53;;;2.13;;
10537;SDS011;5317;49.048;8.468;2023-05-07T06:48:38;2.37;;;2.13;;
10537;SDS011;5317;49.048;8.468;2023-05-07T06:51:05;4.13;;;2.60;;
10537;SDS011;5317;49.048;8.468;2023-05-07T06:53:32;2.70;;;2.23;;
10537;SDS011;5317;49.048;8.468;2023-05-07T06:56:12;2.40;;;2.00;;
10537;SDS011;5317;49.048;8.468;2023-05-07T06:58:38;2.30;;;2.10;;
10537;SDS011;5317;49.048;8.468;2023-05-07T07:01:05;2.60;;;2.03;;
10537;SDS011;5317;49.048;8.468;2023-05-07T07:03:32;3.57;;;2.20;;
10537;SDS011;5317;49.048;8.468;2023-05-07T07:06:00;2.90;;;2.30;;
10537;SDS011;5317;49.048;8.468;2023-05-07T07:08:28;2.37;;;2.00;;
10537;SDS011;5317;49.048;8.468;2023-05-07T07:10:55;2.47;;;2.27;;
10537;SDS011;5317;49.048;8.468;2023-05-07T07:13:22;2.07;;;1.87;;
10537;SDS011;5317;49.048;8.468;2023-05-07T07:15:49;2.20;;;2.00;;
10537;SDS011;5317;49.048;8.468;2023-05-07T07:18:17;4.47;;;2.20;;
10537;SDS011;5317;49.048;8.468;2023-05-07T07:20:44;2.53;;;1.90;;
10537;SDS011;5317;49.048;8.468;2023-05-07T07:23:12;2.10;;;2.00;;
10537;SDS011;5317;49.048;8.468;2023-05-07T07:25:39;2.03;;;1.93;;
10537;SDS011;5317;49.048;8.468;2023-05-07T07:28:06;3.50;;;2.20;;
10537;SDS011;5317;49.048;8.468;2023-05-07T07:30:33;2.47;;;2.27;;
10537;SDS011;5317;49.048;8.468;2023-05-07T07:33:00;2.30;;;2.10;;
10537;SDS011;5317;49.048;8.468;2023-05-07T07:35:28;3.50;;;2.07;;
10537;SDS011;5317;49.048;8.468;2023-05-07T07:37:55;3.00;;;2.27;;
10537;SDS011;5317;49.048;8.468;2023-05-07T07:40:23;2.43;;;2.20;;
10537;SDS011;5317;49.048;8.468;2023-05-07T07:42:51;2.77;;;2.17;;
10537;SDS011;5317;49.048;8.468;2023-05-07T07:45:18;2.23;;;1.90;;
10537;SDS011;5317;49.048;8.468;2023-05-07T07:47:45;1.80;;;1.70;;
10537;SDS011;5317;49.048;8.468;2023-05-07T07:50:12;4.30;;;2.10;;
10537;SDS011;5317;49.048;8.468;2023-05-07T07:52:39;2.93;;;1.80;;
10537;SDS011;5317;49.048;8.468;2023-05-07T07:55:06;2.60;;;2.00;;
10537;SDS011;5317;49.048;8.468;2023-05-07T07:57:35;2.13;;;1.93;;
10537;SDS011;5317;49.048;8.468;2023-05-07T08:00:02;6.37;;;2.37;;
10537;SDS011;5317;49.048;8.468;2023-05-07T08:02:32;3.03;;;1.90;;
10537;SDS011;5317;49.048;8.468;2023-05-07T08:04:58;3.97;;;2.30;;
10537;SDS011;5317;49.048;8.468;2023-05-07T08:07:25;3.67;;;2.63;;
10537;SDS011;5317;49.048;8.468;2023-05-07T08:09:52;2.30;;;2.10;;
10537;SDS011;5317;49.048;8.468;2023-05-07T08:12:19;2.57;;;2.20;;
10537;SDS011;5317;49.048;8.468;2023-05-07T08:14:48;2.33;;;2.13;;
10537;SDS011;5317;49.048;8.468;2023-05-07T08:17:15;4.37;;;2.60;;
10537;SDS011;5317;49.048;8.468;2023-05-07T08:19:41;2.80;;;2.30;;
10537;SDS011;5317;49.048;8.468;2023-05-07T08:22:08;2.57;;;2.23;;
10537;SDS011;5317;49.048;8.468;2023-05-07T08:24:36;2.27;;;2.00;;
10537;SDS011;5317;49.048;8.468;2023-05-07T08:27:03;2.77;;;2.00;;
10537;SDS011;5317;49.048;8.468;2023-05-07T08:29:29;2.77;;;2.43;;
10537;SDS011;5317;49.048;8.468;2023-05-07T08:31:58;3.03;;;2.33;;
10537;SDS011;5317;49.048;8.468;2023-05-07T08:34:24;2.30;;;2.10;;
10537;SDS011;5317;49.048;8.468;2023-05-07T08:36:51;2.97;;;2.50;;
10537;SDS011;5317;49.048;8.468;2023-05-07T08:39:18;3.20;;;2.90;;
10537;SDS011;5317;49.048;8.468;2023-05-07T08:41:45;3.00;;;2.53;;
10537;SDS011;5317;49.048;8.468;2023-05-07T08:44:13;2.30;;;2.10;;
10537;SDS011;5317;49.048;8.468;2023-05-07T08:46:43;2.90;;;2.60;;
10537;SDS011;5317;49.048;8.468;2023-05-07T08:49:14;2.60;;;2.40;;
10537;SDS011;5317;49.048;8.468;2023-05-07T08:51:41;2.60;;;2.40;;
10537;SDS011;5317;49.048;8.468;2023-05-07T08:54:09;3.03;;;2.73;;
10537;SDS011;5317;49.048;8.468;2023-05-07T08:56:37;2.63;;;2.43;;
10537;SDS011;5317;49.048;8.468;2023-05-07T08:59:05;2.90;;;2.30;;
10537;SDS011;5317;49.048;8.468;2023-05-07T09:01:31;3.10;;;2.47;;
10537;SDS011;5317;49.048;8.468;2023-05-07T09:04:00;2.80;;;2.17;;
10537;SDS011;5317;49.048;8.468;2023-05-07T09:06:29;2.97;;;2.30;;
10537;SDS011;5317;49.048;8.468;2023-05-07T09:08:56;2.83;;;2.50;;
10537;SDS011;5317;49.048;8.468;2023-05-07T09:11:26;3.23;;;2.07;;
10537;SDS011;5317;49.048;8.468;2023-05-07T09:13:53;3.83;;;2.63;;
10537;SDS011;5317;49.048;8.468;2023-05-07T09:16:23;4.37;;;2.33;;
10537;SDS011;5317;49.048;8.468;2023-05-07T09:18:51;2.60;;;2.37;;
10537;SDS011;5317;49.048;8.468;2023-05-07T09:21:19;2.57;;;2.20;;
10537;SDS011;5317;49.048;8.468;2023-05-07T09:23:49;2.33;;;2.13;;
10537;SDS011;5317;49.048;8.468;2023-05-07T09:26:17;2.47;;;2.27;;
10537;SDS011;5317;49.048;8.468;2023-05-07T09:28:44;2.70;;;2.40;;
10537;SDS011;5317;49.048;8.468;2023-05-07T09:31:11;2.30;;;2.13;;
10537;SDS011;5317;49.048;8.468;2023-05-07T09:33:38;3.30;;;2.23;;
10537;SDS011;5317;49.048;8.468;2023-05-07T09:36:06;3.13;;;2.23;;
10537;SDS011;5317;49.048;8.468;2023-05-07T09:38:35;3.10;;;2.50;;
10537;SDS011;5317;49.048;8.468;2023-05-07T09:41:04;2.50;;;2.30;;
10537;SDS011;5317;49.048;8.468;2023-05-07T09:43:32;2.37;;;2.17;;
10537;SDS011;5317;49.048;8.468;2023-05-07T09:46:01;2.20;;;2.10;;
10537;SDS011;5317;49.048;8.468;2023-05-07T09:48:29;3.87;;;2.30;;
10537;SDS011;5317;49.048;8.468;2023-05-07T09:50:57;3.27;;;2.40;;
10537;SDS011;5317;49.048;8.468;2023-05-07T09:53:28;2.60;;;2.17;;
10537;SDS011;5317;49.048;8.468;2023-05-07T09:55:57;4.27;;;2.47;;
10537;SDS011;5317;49.048;8.468;2023-05-07T09:58:26;3.73;;;2.40;;
10537;SDS011;5317;49.048;8.468;2023-05-07T10:00:54;2.53;;;2.33;;
10537;SDS011;5317;49.048;8.468;2023-05-07T10:03:22;4.27;;;2.40;;
10537;SDS011;5317;49.048;8.468;2023-05-07T10:06:04;2.57;;;2.10;;
10537;SDS011;5317;49.048;8.468;2023-05-07T10:08:31;2.50;;;2.30;;
10537;SDS011;5317;49.048;8.468;2023-05-07T10:10:59;2.37;;;1.97;;
10537;SDS011;5317;49.048;8.468;2023-05-07T10:13:27;3.13;;;2.27;;
10537;SDS011;5317;49.048;8.468;2023-05-07T10:15:55;2.60;;;2.33;;
10537;SDS011;5317;49.048;8.468;2023-05-07T10:18:22;3.17;;;2.10;;
10537;SDS011;5317;49.048;8.468;2023-05-07T10:21:04;2.40;;;2.10;;
10537;SDS011;5317;49.048;8.468;2023-05-07T10:23:34;2.57;;;2.30;;
10537;SDS011;5317;49.048;8.468;2023-05-07T10:26:02;2.10;;;1.73;;
10537;SDS011;5317;49.048;8.468;2023-05-07T10:28:33;2.80;;;2.50;;
10537;SDS011;5317;49.048;8.468;2023-05-07T10:31:10;2.80;;;2.17;;
10537;SDS011;5317;49.048;8.468;2023-05-07T10:33:49;2.70;;;2.40;;
10537;SDS011;5317;49.048;8.468;2023-05-07T10:36:19;2.70;;;2.50;;
10537;SDS011;5317;49.048;8.468;2023-05-07T10:38:47;2.70;;;2.30;;
10537;SDS011;5317;49.048;8.468;2023-05-07T10:41:14;2.40;;;2.20;;
10537;SDS011;5317;49.048;8.468;2023-05-07T10:43:43;2.60;;;2.40;;
10537;SDS011;5317;49.048;8.468;2023-05-07T10:46:13;5.07;;;2.60;;
10537;SDS011;5317;49.048;8.468;2023-05-07T10:51:40;3.17;;;2.10;;
10537;SDS011;5317;49.048;8.468;2023-05-07T10:54:20;3.10;;;2.80;;
10537;SDS011;5317;49.048;8.468;2023-05-07T10:56:48;2.43;;;2.23;;
10537;SDS011;5317;49.048;8.468;2023-05-07T10:59:36;4.30;;;2.60;;
10537;SDS011;5317;49.048;8.468;2023-05-07T11:02:09;4.33;;;2.77;;
10537;SDS011;5317;49.048;8.468;2023-05-07T11:04:39;4.83;;;2.67;;
10537;SDS011;5317;49.048;8.468;2023-05-07T11:07:19;3.23;;;2.23;;
10537;SDS011;5317;49.048;8.468;2023-05-07T11:09:55;3.70;;;2.00;;
10537;SDS011;5317;49.048;8.468;2023-05-07T11:15:41;2.33;;;2.13;;
10537;SDS011;5317;49.048;8.468;2023-05-07T11:18:23;3.93;;;2.63;;
10537;SDS011;5317;49.048;8.468;2023-05-07T11:20:50;3.53;;;2.30;;
10537;SDS011;5317;49.048;8.468;2023-05-07T11:26:24;2.60;;;2.17;;
10537;SDS011;5317;49.048;8.468;2023-05-07T11:28:52;2.70;;;2.50;;
10537;SDS011;5317;49.048;8.468;2023-05-07T11:31:21;3.73;;;2.10;;
10537;SDS011;5317;49.048;8.468;2023-05-07T11:33:51;2.90;;;2.60;;
10537;SDS011;5317;49.048;8.468;2023-05-07T11:36:18;2.57;;;2.03;;
10537;SDS011;5317;49.048;8.468;2023-05-07T11:38:46;2.10;;;1.90;;
10537;SDS011;5317;49.048;8.468;2023-05-07T11:41:13;2.30;;;2.10;;
10537;SDS011;5317;49.048;8.468;2023-05-07T11:43:53;3.97;;;2.20;;
10537;SDS011;5317;49.048;8.468;2023-05-07T11:46:22;2.40;;;2.00;;
10537;SDS011;5317;49.048;8.468;2023-05-07T11:48:49;2.87;;;2.10;;
10537;SDS011;5317;49.048;8.468;2023-05-07T11:51:20;3.50;;;2.27;;
10537;SDS011;5317;49.048;8.468;2023-05-07T11:53:47;2.10;;;1.90;;
10537;SDS011;5317;49.048;8.468;2023-05-07T11:56:15;2.73;;;2.00;;
10537;SDS011;5317;49.048;8.468;2023-05-07T11:58:44;2.17;;;1.97;;
10537;SDS011;5317;49.048;8.468;2023-05-07T12:01:12;3.03;;;2.23;;
10537;SDS011;5317;49.048;8.468;2023-05-07T12:03:42;2.90;;;2.10;;
10537;SDS011;5317;49.048;8.468;2023-05-07T12:06:11;2.20;;;2.00;;
10537;SDS011;5317;49.048;8.468;2023-05-07T12:08:39;2.40;;;2.20;;
10537;SDS011;5317;49.048;8.468;2023-05-07T12:11:13;2.67;;;2.00;;
10537;SDS011;5317;49.048;8.468;2023-05-07T12:13:43;3.10;;;2.30;;
10537;SDS011;5317;49.048;8.468;2023-05-07T12:16:10;2.43;;;2.27;;
10537;SDS011;5317;49.048;8.468;2023-05-07T12:18:37;3.90;;;2.60;;
10537;SDS011;5317;49.048;8.468;2023-05-07T12:21:06;2.57;;;2.27;;
10537;SDS011;5317;49.048;8.468;2023-05-07T12:23:34;3.53;;;2.53;;
10537;SDS011;5317;49.048;8.468;2023-05-07T12:26:02;3.60;;;2.33;;
10537;SDS011;5317;49.048;8.468;2023-05-07T12:28:30;2.60;;;2.40;;
10537;SDS011;5317;49.048;8.468;2023-05-07T12:31:04;2.40;;;2.20;;
10537;SDS011;5317;49.048;8.468;2023-05-07T12:33:31;3.27;;;2.70;;
10537;SDS011;5317;49.048;8.468;2023-05-07T12:36:00;3.40;;;2.30;;
10537;SDS011;5317;49.048;8.468;2023-05-07T12:38:34;2.33;;;2.13;;
10537;SDS011;5317;49.048;8.468;2023-05-07T12:41:02;2.53;;;2.33;;
10537;SDS011;5317;49.048;8.468;2023-05-07T12:43:30;2.90;;;2.10;;
10537;SDS011;5317;49.048;8.468;2023-05-07T12:45:58;3.13;;;2.27;;
10537;SDS011;5317;49.048;8.468;2023-05-07T12:48:27;2.03;;;1.93;;
10537;SDS011;5317;49.048;8.468;2023-05-07T12:50:55;2.63;;;2.20;;
10537;SDS011;5317;49.048;8.468;2023-05-07T12:53:24;3.60;;;2.50;;
10537;SDS011;5317;49.048;8.468;2023-05-07T12:55:54;2.43;;;2.23;;
10537;SDS011;5317;49.048;8.468;2023-05-07T12:58:24;2.20;;;2.00;;
10537;SDS011;5317;49.048;8.468;2023-05-07T13:00:52;3.23;;;2.50;;
10537;SDS011;5317;49.048;8.468;2023-05-07T13:03:22;3.20;;;2.23;;
10537;SDS011;5317;49.048;8.468;2023-05-07T13:05:50;2.23;;;2.03;;
10537;SDS011;5317;49.048;8.468;2023-05-07T13:08:24;2.37;;;2.17;;
10537;SDS011;5317;49.048;8.468;2023-05-07T13:11:07;3.50;;;2.17;;
10537;SDS011;5317;49.048;8.468;2023-05-07T13:13:35;4.67;;;2.50;;
10537;SDS011;5317;49.048;8.468;2023-05-07T13:16:04;3.37;;;2.47;;
10537;SDS011;5317;49.048;8.468;2023-05-07T13:18:32;3.30;;;2.20;;
10537;SDS011;5317;49.048;8.468;2023-05-07T13:21:06;3.00;;;2.20;;
10537;SDS011;5317;49.048;8.468;2023-05-07T13:23:33;2.50;;;2.00;;
10537;SDS011;5317;49.048;8.468;2023-05-07T13:26:00;2.60;;;2.40;;
10537;SDS011;5317;49.048;8.468;2023-05-07T13:28:29;2.53;;;2.33;;
10537;SDS011;5317;49.048;8.468;2023-05-07T13:31:14;2.60;;;2.30;;
10537;SDS011;5317;49.048;8.468;2023-05-07T13:33:41;4.53;;;2.30;;
10537;SDS011;5317;49.048;8.468;2023-05-07T13:36:07;4.90;;;2.20;;
10537;SDS011;5317;49.048;8.468;2023-05-07T13:38:34;2.77;;;2.40;;
10537;SDS011;5317;49.048;8.468;2023-05-07T13:41:01;5.70;;;2.70;;
10537;SDS011;5317;49.048;8.468;2023-05-07T13:43:29;2.70;;;1.70;;
10537;SDS011;5317;49.048;8.468;2023-05-07T13:46:10;2.93;;;2.00;;
10537;SDS011;5317;49.048;8.468;2023-05-07T13:48:37;3.30;;;2.47;;
10537;SDS011;5317;49.048;8.468;2023-05-07T13:51:04;3.87;;;2.47;;
10537;SDS011;5317;49.048;8.468;2023-05-07T13:53:31;2.40;;;2.20;;
10537;SDS011;5317;49.048;8.468;2023-05-07T13:55:58;2.67;;;2.13;;
10537;SDS011;5317;49.048;8.468;2023-05-07T13:58:25;2.90;;;2.40;;
10537;SDS011;5317;49.048;8.468;2023-05-07T14:00:53;3.40;;;2.27;;
10537;SDS011;5317;49.048;8.468;2023-05-07T14:03:20;2.83;;;1.33;;
10537;SDS011;5317;49.048;8.468;2023-05-07T14:05:47;1.60;;;1.43;;
10537;SDS011;5317;49.048;8.468;2023-05-07T14:08:14;2.83;;;1.33;;
10537;SDS011;5317;49.048;8.468;2023-05-07T14:10:44;1.57;;;1.40;;
10537;SDS011;5317;49.048;8.468;2023-05-07T14:13:11;2.00;;;1.30;;
10537;SDS011;5317;49.048;8.468;2023-05-07T14:15:38;2.30;;;1.50;;
10537;SDS011;5317;49.048;8.468;2023-05-07T14:18:08;2.50;;;1.30;;
10537;SDS011;5317;49.048;8.468;2023-05-07T14:20:35;2.17;;;1.50;;
10537;SDS011;5317;49.048;8.468;2023-05-07T14:23:02;1.53;;;1.30;;
10537;SDS011;5317;49.048;8.468;2023-05-07T14:25:29;2.40;;;1.57;;
10537;SDS011;5317;49.048;8.468;2023-05-07T14:27:56;1.30;;;1.17;;
10537;SDS011;5317;49.048;8.468;2023-05-07T14:30:23;1.33;;;1.23;;
10537;SDS011;5317;49.048;8.468;2023-05-07T14:32:50;3.00;;;1.70;;
10537;SDS011;5317;49.048;8.468;2023-05-07T14:35:18;3.23;;;1.50;;
10537;SDS011;5317;49.048;8.468;2023-05-07T14:37:45;1.93;;;1.43;;
10537;SDS011;5317;49.048;8.468;2023-05-07T14:40:12;1.70;;;1.30;;
10537;SDS011;5317;49.048;8.468;2023-05-07T14:42:39;1.60;;;1.50;;
10537;SDS011;5317;49.048;8.468;2023-05-07T14:45:07;1.97;;;1.47;;
10537;SDS011;5317;49.048;8.468;2023-05-07T14:47:34;1.83;;;1.20;;
10537;SDS011;5317;49.048;8.468;2023-05-07T14:50:01;1.27;;;1.10;;
10537;SDS011;5317;49.048;8.468;2023-05-07T14:52:30;2.37;;;1.50;;
10537;SDS011;5317;49.048;8.468;2023-05-07T14:54:56;3.10;;;1.17;;
10537;SDS011;5317;49.048;8.468;2023-05-07T14:57:23;1.80;;;1.57;;
10537;SDS011;5317;49.048;8.468;2023-05-07T14:59:50;2.20;;;1.57;;
10537;SDS011;5317;49.048;8.468;2023-05-07T15:02:17;1.73;;;1.40;;
10537;SDS011;5317;49.048;8.468;2023-05-07T15:04:44;2.97;;;1.47;;
10537;SDS011;5317;49.048;8.468;2023-05-07T15:07:11;2.67;;;1.50;;
10537;SDS011;5317;49.048;8.468;2023-05-07T15:09:41;1.70;;;1.30;;
10537;SDS011;5317;49.048;8.468;2023-05-07T15:12:08;2.00;;;1.20;;
10537;SDS011;5317;49.048;8.468;2023-05-07T15:14:36;1.90;;;1.33;;
10537;SDS011;5317;49.048;8.468;2023-05-07T15:17:03;1.63;;;1.23;;